UAL371 KLGA-KFLL
Flight info
| Callsign | UAL371 |
|---|---|
| Flight time | 2h 43m |
| Altitude | 32000 |
| Route | WHITE Q409 CRPLR KOOKI Q161 CHIEZ Y291 MAJIK CUUDA3 |
| Aircraft | B738/M-SDE2E3FGHIRWXY/LB1 |
Departure
| Time | 2026-05-04 21:45 |
|---|---|
| Airport | LaGuardia Airport (KLGA) |
Arrival
| Time | 2026-05-05 00:29 |
|---|---|
| Airport | Fort Lauderdale Hollywood International Airport (KFLL) |
| Time | Latitude | Longitude | Altitude | Speed | Heading |
|---|---|---|---|---|---|
| 2026-05-04 21:17 | 40.77544 | -73.87131 | 19 ft | 0 kts | 302° |
| 2026-05-04 21:31 | 40.77533 | -73.87109 | 22 ft | 3 kts | 302° |
| 2026-05-04 21:31 | 40.77524 | -73.87084 | 21 ft | 4 kts | 268° |
| 2026-05-04 21:31 | 40.77533 | -73.87057 | 22 ft | 4 kts | 217° |
| 2026-05-04 21:32 | 40.77552 | -73.87040 | 21 ft | 1 kts | 212° |
| 2026-05-04 21:40 | 40.77550 | -73.87039 | 18 ft | 1 kts | 185° |
| 2026-05-04 21:40 | 40.77549 | -73.87028 | 19 ft | 1 kts | 74° |
| 2026-05-04 21:40 | 40.77561 | -73.87022 | 18 ft | 2 kts | 22° |
| 2026-05-04 21:40 | 40.77580 | -73.87012 | 18 ft | 5 kts | 22° |
| 2026-05-04 21:41 | 40.77619 | -73.86998 | 15 ft | 8 kts | 1° |
| 2026-05-04 21:41 | 40.77680 | -73.86994 | 12 ft | 9 kts | 3° |
| 2026-05-04 21:41 | 40.77727 | -73.87040 | 12 ft | 9 kts | 304° |
| 2026-05-04 21:41 | 40.77759 | -73.87106 | 12 ft | 8 kts | 303° |
| 2026-05-04 21:42 | 40.77790 | -73.87170 | 12 ft | 8 kts | 302° |
| 2026-05-04 21:42 | 40.77820 | -73.87232 | 12 ft | 8 kts | 302° |
| 2026-05-04 21:42 | 40.77848 | -73.87294 | 13 ft | 8 kts | 301° |
| 2026-05-04 21:42 | 40.77876 | -73.87352 | 13 ft | 8 kts | 302° |
| 2026-05-04 21:43 | 40.77900 | -73.87403 | 14 ft | 4 kts | 302° |
| 2026-05-04 21:43 | 40.77916 | -73.87437 | 14 ft | 4 kts | 301° |
| 2026-05-04 21:43 | 40.77935 | -73.87477 | 14 ft | 8 kts | 302° |
| 2026-05-04 21:43 | 40.77972 | -73.87555 | 15 ft | 11 kts | 302° |
| 2026-05-04 21:44 | 40.78019 | -73.87650 | 14 ft | 13 kts | 303° |
| 2026-05-04 21:44 | 40.78068 | -73.87751 | 16 ft | 10 kts | 302° |
| 2026-05-04 21:44 | 40.78106 | -73.87828 | 17 ft | 10 kts | 309° |
| 2026-05-04 21:44 | 40.78170 | -73.87865 | 15 ft | 11 kts | 5° |
| 2026-05-04 21:45 | 40.78178 | -73.87713 | 13 ft | 51 kts | 126° |
| 2026-05-04 21:45 | 40.77844 | -73.87035 | 14 ft | 125 kts | 122° |
| 2026-05-04 21:45 | 40.77275 | -73.85829 | 150 ft | 176 kts | 124° |
| 2026-05-04 21:45 | 40.76640 | -73.84395 | 914 ft | 188 kts | 126° |
| 2026-05-04 21:46 | 40.75880 | -73.82952 | 1733 ft | 188 kts | 143° |
| 2026-05-04 21:46 | 40.74719 | -73.82200 | 2315 ft | 194 kts | 177° |
| 2026-05-04 21:46 | 40.73333 | -73.82291 | 2641 ft | 210 kts | 188° |
| 2026-05-04 21:46 | 40.71822 | -73.82342 | 3098 ft | 221 kts | 186° |
| 2026-05-04 21:47 | 40.70320 | -73.82731 | 3678 ft | 221 kts | 199° |
| 2026-05-04 21:47 | 40.68812 | -73.83207 | 4265 ft | 226 kts | 194° |
| 2026-05-04 21:47 | 40.67237 | -73.83728 | 4665 ft | 239 kts | 203° |
| 2026-05-04 21:47 | 40.65829 | -73.84962 | 5119 ft | 246 kts | 221° |
| 2026-05-04 21:48 | 40.64495 | -73.86367 | 5069 ft | 244 kts | 220° |
| 2026-05-04 21:48 | 40.63179 | -73.87715 | 5044 ft | 234 kts | 220° |
| 2026-05-04 21:48 | 40.61920 | -73.88977 | 5153 ft | 224 kts | 217° |
| 2026-05-04 21:48 | 40.60604 | -73.90079 | 5173 ft | 226 kts | 215° |
| 2026-05-04 21:49 | 40.59225 | -73.91182 | 5331 ft | 246 kts | 214° |
| 2026-05-04 21:49 | 40.57734 | -73.92375 | 6006 ft | 254 kts | 214° |
| 2026-05-04 21:49 | 40.56213 | -73.93599 | 6747 ft | 258 kts | 214° |
| 2026-05-04 21:49 | 40.54668 | -73.94848 | 7526 ft | 262 kts | 215° |
| 2026-05-04 21:50 | 40.53103 | -73.96116 | 8296 ft | 267 kts | 215° |
| 2026-05-04 21:50 | 40.51468 | -73.97316 | 9052 ft | 273 kts | 209° |
| 2026-05-04 21:50 | 40.49712 | -73.98320 | 9810 ft | 278 kts | 207° |
| 2026-05-04 21:50 | 40.47912 | -73.99284 | 10509 ft | 281 kts | 207° |
| 2026-05-04 21:51 | 40.46085 | -74.00257 | 11223 ft | 284 kts | 207° |
| 2026-05-04 21:51 | 40.44242 | -74.01245 | 11895 ft | 289 kts | 207° |
| 2026-05-04 21:51 | 40.42376 | -74.02254 | 12624 ft | 291 kts | 208° |
| 2026-05-04 21:51 | 40.40501 | -74.03275 | 13383 ft | 293 kts | 208° |
| 2026-05-04 21:52 | 40.38613 | -74.04308 | 14063 ft | 296 kts | 208° |
| 2026-05-04 21:52 | 40.36703 | -74.05357 | 14682 ft | 299 kts | 208° |
| 2026-05-04 21:52 | 40.34767 | -74.06421 | 15327 ft | 303 kts | 208° |
| 2026-05-04 21:52 | 40.32812 | -74.07497 | 15946 ft | 306 kts | 208° |
| 2026-05-04 21:53 | 40.30837 | -74.08583 | 16586 ft | 309 kts | 208° |
| 2026-05-04 21:53 | 40.28861 | -74.09671 | 17195 ft | 313 kts | 209° |
| 2026-05-04 21:53 | 40.26837 | -74.10784 | 17810 ft | 317 kts | 209° |
| 2026-05-04 21:53 | 40.24793 | -74.11908 | 18425 ft | 320 kts | 209° |
| 2026-05-04 21:54 | 40.22721 | -74.13048 | 18880 ft | 326 kts | 209° |
| 2026-05-04 21:54 | 40.20618 | -74.14203 | 19405 ft | 329 kts | 209° |
| 2026-05-04 21:54 | 40.18498 | -74.15366 | 19967 ft | 332 kts | 209° |
| 2026-05-04 21:54 | 40.16353 | -74.16541 | 20484 ft | 336 kts | 209° |
| 2026-05-04 21:55 | 40.14187 | -74.17728 | 21007 ft | 339 kts | 209° |
| 2026-05-04 21:55 | 40.11993 | -74.18930 | 21521 ft | 343 kts | 209° |
| 2026-05-04 21:55 | 40.09779 | -74.20141 | 22027 ft | 346 kts | 209° |
| 2026-05-04 21:55 | 40.07546 | -74.21362 | 22522 ft | 350 kts | 209° |
| 2026-05-04 21:56 | 40.05288 | -74.22597 | 22916 ft | 354 kts | 209° |
| 2026-05-04 21:56 | 40.03037 | -74.23826 | 22870 ft | 354 kts | 208° |
| 2026-05-04 21:56 | 40.00792 | -74.25115 | 22921 ft | 350 kts | 214° |
| 2026-05-04 21:56 | 39.98758 | -74.26825 | 22975 ft | 346 kts | 222° |
| 2026-05-04 21:57 | 39.96826 | -74.28693 | 22966 ft | 347 kts | 223° |
| 2026-05-04 21:57 | 39.94890 | -74.30583 | 22967 ft | 348 kts | 223° |
| 2026-05-04 21:57 | 39.92945 | -74.32470 | 22968 ft | 348 kts | 222° |
| 2026-05-04 21:57 | 39.90995 | -74.34347 | 22964 ft | 349 kts | 222° |
| 2026-05-04 21:58 | 39.89038 | -74.36220 | 22974 ft | 348 kts | 223° |
| 2026-05-04 21:58 | 39.87082 | -74.38085 | 22957 ft | 348 kts | 222° |
| 2026-05-04 21:58 | 39.85099 | -74.39972 | 23013 ft | 357 kts | 222° |
| 2026-05-04 21:58 | 39.83080 | -74.41897 | 23090 ft | 371 kts | 222° |
| 2026-05-04 21:59 | 39.81015 | -74.43995 | 23192 ft | 381 kts | 227° |
| 2026-05-04 21:59 | 39.79093 | -74.46429 | 23296 ft | 392 kts | 231° |
| 2026-05-04 21:59 | 39.77172 | -74.49018 | 23398 ft | 404 kts | 231° |
| 2026-05-04 21:59 | 39.75207 | -74.51698 | 23470 ft | 415 kts | 231° |
| 2026-05-04 22:00 | 39.73183 | -74.54448 | 23609 ft | 425 kts | 231° |
| 2026-05-04 22:00 | 39.71122 | -74.57220 | 23929 ft | 428 kts | 231° |
| 2026-05-04 22:00 | 39.69036 | -74.60000 | 24372 ft | 429 kts | 230° |
| 2026-05-04 22:00 | 39.66946 | -74.62770 | 24775 ft | 430 kts | 230° |
| 2026-05-04 22:01 | 39.64841 | -74.65552 | 25113 ft | 433 kts | 230° |
| 2026-05-04 22:01 | 39.62722 | -74.68350 | 25435 ft | 436 kts | 230° |
| 2026-05-04 22:01 | 39.60614 | -74.71128 | 25779 ft | 438 kts | 230° |
| 2026-05-04 22:01 | 39.58474 | -74.73947 | 26123 ft | 440 kts | 230° |
| 2026-05-04 22:02 | 39.56323 | -74.76779 | 26446 ft | 442 kts | 230° |
| 2026-05-04 22:02 | 39.54149 | -74.79639 | 26756 ft | 444 kts | 230° |
| 2026-05-04 22:02 | 39.51977 | -74.82493 | 27085 ft | 446 kts | 230° |
| 2026-05-04 22:02 | 39.49791 | -74.85363 | 27413 ft | 447 kts | 230° |
| 2026-05-04 22:03 | 39.47599 | -74.88237 | 27826 ft | 446 kts | 230° |
| 2026-05-04 22:03 | 39.45423 | -74.91087 | 28275 ft | 445 kts | 230° |
| 2026-05-04 22:03 | 39.43246 | -74.93936 | 28709 ft | 444 kts | 230° |
| 2026-05-04 22:03 | 39.41077 | -74.96773 | 29151 ft | 443 kts | 230° |
| 2026-05-04 22:04 | 39.38937 | -74.99571 | 29560 ft | 443 kts | 230° |
| 2026-05-04 22:04 | 39.36772 | -75.02399 | 30003 ft | 442 kts | 230° |
| 2026-05-04 22:04 | 39.34609 | -75.05223 | 30377 ft | 441 kts | 230° |
| 2026-05-04 22:04 | 39.32452 | -75.08035 | 30729 ft | 440 kts | 229° |
| 2026-05-04 22:05 | 39.30298 | -75.10839 | 31042 ft | 440 kts | 229° |
| 2026-05-04 22:05 | 39.28097 | -75.13606 | 31375 ft | 440 kts | 227° |
| 2026-05-04 22:05 | 39.25843 | -75.16249 | 31834 ft | 437 kts | 226° |
| 2026-05-04 22:05 | 39.23567 | -75.18854 | 31976 ft | 440 kts | 225° |
| 2026-05-04 22:06 | 39.21270 | -75.21484 | 31979 ft | 442 kts | 226° |
| 2026-05-04 22:06 | 39.16696 | -75.26769 | 31987 ft | 438 kts | 226° |
| 2026-05-04 22:07 | 39.12232 | -75.31967 | 31997 ft | 434 kts | 226° |
| 2026-05-04 22:07 | 39.07750 | -75.37191 | 32013 ft | 434 kts | 226° |
| 2026-05-04 22:08 | 39.03088 | -75.42163 | 31986 ft | 441 kts | 214° |
| 2026-05-04 22:08 | 38.97279 | -75.44891 | 31990 ft | 454 kts | 192° |
| 2026-05-04 22:09 | 38.90977 | -75.45729 | 31982 ft | 456 kts | 189° |
| 2026-05-04 22:09 | 38.84652 | -75.46509 | 32019 ft | 455 kts | 191° |
| 2026-05-04 22:10 | 38.78350 | -75.47377 | 32020 ft | 455 kts | 191° |
| 2026-05-04 22:10 | 38.72105 | -75.48254 | 32041 ft | 454 kts | 191° |
| 2026-05-04 22:11 | 38.65815 | -75.49110 | 31980 ft | 454 kts | 191° |
| 2026-05-04 22:11 | 38.59536 | -75.49952 | 32015 ft | 453 kts | 191° |
| 2026-05-04 22:12 | 38.53276 | -75.50795 | 32029 ft | 452 kts | 191° |
| 2026-05-04 22:12 | 38.47060 | -75.51632 | 32052 ft | 451 kts | 191° |
| 2026-05-04 22:13 | 38.40820 | -75.52471 | 32052 ft | 450 kts | 192° |
| 2026-05-04 22:13 | 38.34710 | -75.53796 | 32062 ft | 439 kts | 205° |
| 2026-05-04 22:14 | 38.29351 | -75.57209 | 32056 ft | 425 kts | 220° |
| 2026-05-04 22:14 | 38.24498 | -75.61507 | 32054 ft | 425 kts | 221° |
| 2026-05-04 22:15 | 38.19646 | -75.65796 | 32034 ft | 424 kts | 221° |
| 2026-05-04 22:15 | 38.14782 | -75.70047 | 32031 ft | 424 kts | 220° |
| 2026-05-04 22:16 | 38.09936 | -75.74254 | 32015 ft | 424 kts | 220° |
| 2026-05-04 22:16 | 38.05062 | -75.78476 | 32012 ft | 423 kts | 221° |
| 2026-05-04 22:17 | 38.00201 | -75.82679 | 32004 ft | 422 kts | 221° |
| 2026-05-04 22:17 | 37.95351 | -75.86865 | 32026 ft | 421 kts | 221° |
| 2026-05-04 22:18 | 37.90520 | -75.91031 | 32020 ft | 420 kts | 221° |
| 2026-05-04 22:18 | 37.85695 | -75.95185 | 32071 ft | 419 kts | 221° |
| 2026-05-04 22:19 | 37.80884 | -75.99318 | 32245 ft | 416 kts | 223° |
| 2026-05-04 22:19 | 37.78529 | -76.01330 | 32153 ft | 401 kts | 224° |
| 2026-05-04 22:19 | 37.76285 | -76.03243 | 32078 ft | 387 kts | 224° |
| 2026-05-04 22:20 | 37.71857 | -76.07051 | 32066 ft | 388 kts | 224° |
| 2026-05-04 22:20 | 37.67346 | -76.10929 | 32056 ft | 396 kts | 224° |
| 2026-05-04 22:21 | 37.62770 | -76.14809 | 32021 ft | 399 kts | 221° |
| 2026-05-04 22:21 | 37.57572 | -76.17696 | 32020 ft | 421 kts | 206° |
| 2026-05-04 22:22 | 37.51863 | -76.19503 | 32018 ft | 423 kts | 205° |
| 2026-05-04 22:22 | 37.46173 | -76.21270 | 32023 ft | 423 kts | 205° |
| 2026-05-04 22:23 | 37.40459 | -76.23070 | 32019 ft | 423 kts | 206° |
| 2026-05-04 22:23 | 37.34761 | -76.24879 | 32012 ft | 421 kts | 206° |
| 2026-05-04 22:24 | 37.29085 | -76.26684 | 32021 ft | 420 kts | 206° |
| 2026-05-04 22:24 | 37.23423 | -76.28483 | 32053 ft | 419 kts | 206° |
| 2026-05-04 22:25 | 37.18723 | -76.29975 | 32060 ft | 419 kts | 206° |
| 2026-05-04 22:25 | 37.13080 | -76.31762 | 32046 ft | 418 kts | 206° |
| 2026-05-04 22:26 | 37.07449 | -76.33543 | 32059 ft | 417 kts | 206° |
| 2026-05-04 22:26 | 37.01826 | -76.35319 | 32064 ft | 417 kts | 206° |
| 2026-05-04 22:27 | 36.96201 | -76.37093 | 32084 ft | 417 kts | 206° |
| 2026-05-04 22:27 | 36.90575 | -76.38864 | 32063 ft | 416 kts | 205° |
| 2026-05-04 22:28 | 36.84960 | -76.40629 | 32079 ft | 416 kts | 205° |
| 2026-05-04 22:28 | 36.79386 | -76.42379 | 32082 ft | 416 kts | 205° |
| 2026-05-04 22:29 | 36.73756 | -76.44144 | 32081 ft | 417 kts | 205° |
| 2026-05-04 22:29 | 36.68136 | -76.45902 | 32051 ft | 416 kts | 205° |
| 2026-05-04 22:30 | 36.62515 | -76.47658 | 32040 ft | 416 kts | 205° |
| 2026-05-04 22:30 | 36.56892 | -76.49412 | 32050 ft | 416 kts | 205° |
| 2026-05-04 22:31 | 36.51303 | -76.51153 | 32056 ft | 416 kts | 205° |
| 2026-05-04 22:31 | 36.45641 | -76.52915 | 32006 ft | 417 kts | 205° |
| 2026-05-04 22:32 | 36.40053 | -76.54649 | 32049 ft | 416 kts | 205° |
| 2026-05-04 22:32 | 36.34429 | -76.56394 | 32056 ft | 416 kts | 205° |
| 2026-05-04 22:33 | 36.28801 | -76.58137 | 32052 ft | 417 kts | 205° |
| 2026-05-04 22:33 | 36.23167 | -76.59879 | 32021 ft | 417 kts | 204° |
| 2026-05-04 22:34 | 36.17536 | -76.61617 | 32056 ft | 416 kts | 204° |
| 2026-05-04 22:34 | 36.11944 | -76.63341 | 32064 ft | 416 kts | 204° |
| 2026-05-04 22:35 | 36.06312 | -76.65075 | 32101 ft | 416 kts | 204° |
| 2026-05-04 22:35 | 36.00717 | -76.66795 | 32101 ft | 416 kts | 204° |
| 2026-05-04 22:36 | 35.95102 | -76.68518 | 32091 ft | 414 kts | 204° |
| 2026-05-04 22:36 | 35.89588 | -76.70456 | 32086 ft | 403 kts | 213° |
| 2026-05-04 22:37 | 35.84628 | -76.73504 | 32071 ft | 398 kts | 216° |
| 2026-05-04 22:37 | 35.79676 | -76.76576 | 32078 ft | 398 kts | 216° |
| 2026-05-04 22:38 | 35.74734 | -76.79605 | 32065 ft | 398 kts | 216° |
| 2026-05-04 22:38 | 35.69762 | -76.82638 | 32075 ft | 398 kts | 216° |
| 2026-05-04 22:39 | 35.64791 | -76.85667 | 32078 ft | 399 kts | 216° |
| 2026-05-04 22:39 | 35.59810 | -76.88699 | 32097 ft | 400 kts | 215° |
| 2026-05-04 22:40 | 35.54848 | -76.91723 | 32102 ft | 400 kts | 215° |
| 2026-05-04 22:40 | 35.49869 | -76.94772 | 32094 ft | 399 kts | 215° |
| 2026-05-04 22:41 | 35.44888 | -76.97821 | 32094 ft | 400 kts | 215° |
| 2026-05-04 22:41 | 35.39901 | -77.00868 | 32095 ft | 400 kts | 215° |
| 2026-05-04 22:42 | 35.34905 | -77.03916 | 32094 ft | 401 kts | 215° |
| 2026-05-04 22:42 | 35.29947 | -77.06936 | 32090 ft | 401 kts | 215° |
| 2026-05-04 22:43 | 35.24953 | -77.09973 | 32088 ft | 401 kts | 215° |
| 2026-05-04 22:43 | 35.19952 | -77.13011 | 32086 ft | 401 kts | 215° |
| 2026-05-04 22:44 | 35.14955 | -77.16042 | 32092 ft | 400 kts | 215° |
| 2026-05-04 22:44 | 35.09960 | -77.19067 | 32092 ft | 400 kts | 215° |
| 2026-05-04 22:45 | 35.04969 | -77.22086 | 32085 ft | 399 kts | 215° |
| 2026-05-04 22:45 | 34.97534 | -77.26576 | 32096 ft | 399 kts | 215° |
| 2026-05-04 22:46 | 34.92551 | -77.29581 | 32100 ft | 399 kts | 215° |
| 2026-05-04 22:46 | 34.87564 | -77.32584 | 32100 ft | 400 kts | 215° |
| 2026-05-04 22:47 | 34.82575 | -77.35583 | 32050 ft | 400 kts | 214° |
| 2026-05-04 22:47 | 34.77589 | -77.38576 | 32081 ft | 399 kts | 214° |
| 2026-05-04 22:48 | 34.72611 | -77.41561 | 32092 ft | 399 kts | 214° |
| 2026-05-04 22:48 | 34.67660 | -77.44526 | 32092 ft | 399 kts | 214° |
| 2026-05-04 22:49 | 34.62685 | -77.47502 | 32092 ft | 398 kts | 214° |
| 2026-05-04 22:49 | 34.57712 | -77.50473 | 32087 ft | 397 kts | 214° |
| 2026-05-04 22:50 | 34.52726 | -77.53375 | 32087 ft | 401 kts | 210° |
| 2026-05-04 22:50 | 34.47218 | -77.55095 | 32105 ft | 414 kts | 200° |
| 2026-05-04 22:51 | 34.41579 | -77.56293 | 32094 ft | 413 kts | 200° |
| 2026-05-04 22:51 | 34.35929 | -77.57516 | 32100 ft | 412 kts | 200° |
| 2026-05-04 22:52 | 34.30315 | -77.58748 | 32090 ft | 409 kts | 201° |
| 2026-05-04 22:52 | 34.24731 | -77.59981 | 32101 ft | 407 kts | 201° |
| 2026-05-04 22:53 | 34.19346 | -77.61169 | 32109 ft | 406 kts | 201° |
| 2026-05-04 22:53 | 34.13782 | -77.62394 | 32108 ft | 406 kts | 201° |
| 2026-05-04 22:54 | 34.08219 | -77.63617 | 32102 ft | 406 kts | 201° |
| 2026-05-04 22:54 | 34.02662 | -77.64836 | 32105 ft | 405 kts | 201° |
| 2026-05-04 22:55 | 33.97113 | -77.66053 | 32117 ft | 405 kts | 201° |
| 2026-05-04 22:55 | 33.91564 | -77.67268 | 32112 ft | 405 kts | 201° |
| 2026-05-04 22:56 | 33.86015 | -77.68481 | 32115 ft | 405 kts | 201° |
| 2026-05-04 22:56 | 33.80470 | -77.69690 | 32109 ft | 404 kts | 200° |
| 2026-05-04 22:57 | 33.74977 | -77.70889 | 32122 ft | 403 kts | 200° |
| 2026-05-04 22:57 | 33.69456 | -77.72091 | 32122 ft | 403 kts | 201° |
| 2026-05-04 22:58 | 33.64085 | -77.73686 | 32124 ft | 395 kts | 205° |
| 2026-05-04 22:58 | 33.58781 | -77.75460 | 32095 ft | 395 kts | 205° |
| 2026-05-04 22:59 | 33.53496 | -77.77216 | 32122 ft | 394 kts | 205° |
| 2026-05-04 22:59 | 33.48243 | -77.78945 | 32127 ft | 394 kts | 205° |
| 2026-05-04 23:00 | 33.42958 | -77.80675 | 32135 ft | 394 kts | 205° |
| 2026-05-04 23:00 | 33.37676 | -77.82401 | 32138 ft | 393 kts | 205° |
| 2026-05-04 23:01 | 33.32393 | -77.84127 | 32128 ft | 393 kts | 205° |
| 2026-05-04 23:01 | 33.27115 | -77.85848 | 32134 ft | 393 kts | 205° |
| 2026-05-04 23:02 | 33.21843 | -77.87567 | 32125 ft | 394 kts | 198° |
| 2026-05-04 23:02 | 33.19181 | -77.88437 | 32005 ft | 398 kts | 195° |
| 2026-05-04 23:02 | 33.16512 | -77.89299 | 32090 ft | 396 kts | 204° |
| 2026-05-04 23:03 | 33.11219 | -77.91016 | 32134 ft | 393 kts | 205° |
| 2026-05-04 23:03 | 33.05946 | -77.92730 | 32132 ft | 392 kts | 205° |
| 2026-05-04 23:04 | 33.00688 | -77.94473 | 32139 ft | 392 kts | 205° |
| 2026-05-04 23:04 | 32.95473 | -77.96257 | 32150 ft | 392 kts | 205° |
| 2026-05-04 23:05 | 32.90207 | -77.98054 | 32139 ft | 394 kts | 205° |
| 2026-05-04 23:05 | 32.84926 | -77.99847 | 32145 ft | 394 kts | 205° |
| 2026-05-04 23:06 | 32.79643 | -78.01636 | 32142 ft | 395 kts | 205° |
| 2026-05-04 23:06 | 32.74342 | -78.03429 | 32144 ft | 396 kts | 205° |
| 2026-05-04 23:07 | 32.69079 | -78.05207 | 32145 ft | 396 kts | 205° |
| 2026-05-04 23:07 | 32.63772 | -78.07007 | 32144 ft | 396 kts | 205° |
| 2026-05-04 23:08 | 32.58477 | -78.08805 | 32108 ft | 395 kts | 205° |
| 2026-05-04 23:08 | 32.53216 | -78.10590 | 32132 ft | 395 kts | 205° |
| 2026-05-04 23:09 | 32.47903 | -78.12389 | 32152 ft | 395 kts | 205° |
| 2026-05-04 23:09 | 32.42650 | -78.14166 | 32146 ft | 395 kts | 205° |
| 2026-05-04 23:10 | 32.37350 | -78.15957 | 32145 ft | 395 kts | 205° |
| 2026-05-04 23:10 | 32.32058 | -78.17743 | 32115 ft | 395 kts | 205° |
| 2026-05-04 23:11 | 32.26799 | -78.19515 | 32144 ft | 395 kts | 205° |
| 2026-05-04 23:11 | 32.21502 | -78.21298 | 32154 ft | 396 kts | 205° |
| 2026-05-04 23:12 | 32.16200 | -78.23081 | 32153 ft | 396 kts | 204° |
| 2026-05-04 23:12 | 32.10877 | -78.24869 | 32151 ft | 397 kts | 204° |
| 2026-05-04 23:13 | 32.05564 | -78.26650 | 32110 ft | 397 kts | 204° |
| 2026-05-04 23:13 | 32.00261 | -78.28426 | 32138 ft | 396 kts | 204° |
| 2026-05-04 23:14 | 31.94985 | -78.30192 | 32148 ft | 397 kts | 204° |
| 2026-05-04 23:14 | 31.89661 | -78.31971 | 32147 ft | 397 kts | 204° |
| 2026-05-04 23:15 | 31.84339 | -78.33748 | 32147 ft | 397 kts | 204° |
| 2026-05-04 23:15 | 31.79015 | -78.35522 | 32134 ft | 397 kts | 204° |
| 2026-05-04 23:16 | 31.73733 | -78.37281 | 32141 ft | 396 kts | 204° |
| 2026-05-04 23:16 | 31.68425 | -78.39046 | 32147 ft | 396 kts | 204° |
| 2026-05-04 23:17 | 31.63118 | -78.40810 | 32144 ft | 396 kts | 204° |
| 2026-05-04 23:17 | 31.57825 | -78.42567 | 32144 ft | 395 kts | 204° |
| 2026-05-04 23:18 | 31.52530 | -78.44321 | 32123 ft | 394 kts | 204° |
| 2026-05-04 23:18 | 31.47277 | -78.46036 | 32140 ft | 394 kts | 204° |
| 2026-05-04 23:19 | 31.42000 | -78.47744 | 32148 ft | 394 kts | 204° |
| 2026-05-04 23:19 | 31.36713 | -78.49456 | 32148 ft | 394 kts | 204° |
| 2026-05-04 23:20 | 31.31426 | -78.51167 | 32145 ft | 394 kts | 204° |
| 2026-05-04 23:20 | 31.26142 | -78.52876 | 32133 ft | 393 kts | 204° |
| 2026-05-04 23:21 | 31.21759 | -78.54292 | 32134 ft | 393 kts | 204° |
| 2026-05-04 23:21 | 31.15631 | -78.56271 | 32141 ft | 392 kts | 204° |
| 2026-05-04 23:22 | 31.11256 | -78.57682 | 32138 ft | 392 kts | 204° |
| 2026-05-04 23:22 | 31.05986 | -78.59380 | 32139 ft | 392 kts | 204° |
| 2026-05-04 23:23 | 31.00717 | -78.61075 | 32112 ft | 392 kts | 204° |
| 2026-05-04 23:23 | 30.95460 | -78.62764 | 32131 ft | 391 kts | 204° |
| 2026-05-04 23:24 | 30.90246 | -78.64438 | 32136 ft | 391 kts | 204° |
| 2026-05-04 23:24 | 30.85002 | -78.66120 | 32136 ft | 390 kts | 204° |
| 2026-05-04 23:25 | 30.79758 | -78.67800 | 32138 ft | 390 kts | 204° |
| 2026-05-04 23:25 | 30.74516 | -78.69478 | 32089 ft | 390 kts | 204° |
| 2026-05-04 23:26 | 30.69319 | -78.71139 | 32122 ft | 389 kts | 204° |
| 2026-05-04 23:26 | 30.64094 | -78.72806 | 32137 ft | 389 kts | 204° |
| 2026-05-04 23:27 | 30.58881 | -78.74469 | 32132 ft | 388 kts | 204° |
| 2026-05-04 23:27 | 30.53665 | -78.76130 | 32131 ft | 388 kts | 204° |
| 2026-05-04 23:28 | 30.48457 | -78.77787 | 32129 ft | 388 kts | 204° |
| 2026-05-04 23:28 | 30.43178 | -78.79471 | 32140 ft | 400 kts | 203° |
| 2026-05-04 23:29 | 30.37720 | -78.81208 | 32147 ft | 413 kts | 203° |
| 2026-05-04 23:29 | 30.32119 | -78.82983 | 32145 ft | 426 kts | 202° |
| 2026-05-04 23:30 | 30.26378 | -78.84795 | 32128 ft | 429 kts | 202° |
| 2026-05-04 23:30 | 30.20614 | -78.86616 | 32130 ft | 430 kts | 202° |
| 2026-05-04 23:31 | 30.14845 | -78.88439 | 32128 ft | 429 kts | 202° |
| 2026-05-04 23:31 | 30.09087 | -78.90258 | 32126 ft | 427 kts | 202° |
| 2026-05-04 23:32 | 30.03391 | -78.92055 | 32120 ft | 425 kts | 202° |
| 2026-05-04 23:32 | 29.97696 | -78.93851 | 32122 ft | 423 kts | 202° |
| 2026-05-04 23:33 | 29.92020 | -78.95639 | 32077 ft | 421 kts | 202° |
| 2026-05-04 23:33 | 29.86387 | -78.97411 | 32106 ft | 419 kts | 202° |
| 2026-05-04 23:34 | 29.80751 | -78.99181 | 32119 ft | 420 kts | 202° |
| 2026-05-04 23:34 | 29.75004 | -79.00464 | 32125 ft | 426 kts | 196° |
| 2026-05-04 23:35 | 29.69113 | -79.01450 | 32112 ft | 428 kts | 195° |
| 2026-05-04 23:35 | 29.63204 | -79.02461 | 32098 ft | 429 kts | 196° |
| 2026-05-04 23:36 | 29.57298 | -79.03523 | 32105 ft | 429 kts | 196° |
| 2026-05-04 23:36 | 29.51395 | -79.04607 | 32113 ft | 430 kts | 196° |
| 2026-05-04 23:37 | 29.45480 | -79.05698 | 32104 ft | 431 kts | 196° |
| 2026-05-04 23:37 | 29.39585 | -79.06783 | 32105 ft | 432 kts | 196° |
| 2026-05-04 23:38 | 29.33643 | -79.07874 | 32509 ft | 432 kts | 191° |
| 2026-05-04 23:38 | 29.30660 | -79.08422 | 32270 ft | 437 kts | 189° |
| 2026-05-04 23:38 | 29.27651 | -79.08971 | 31806 ft | 433 kts | 195° |
| 2026-05-04 23:39 | 29.24729 | -79.09498 | 31935 ft | 422 kts | 196° |
| 2026-05-04 23:39 | 29.21818 | -79.10030 | 32018 ft | 424 kts | 197° |
| 2026-05-04 23:39 | 29.15922 | -79.11120 | 32098 ft | 434 kts | 196° |
| 2026-05-04 23:40 | 29.09962 | -79.12214 | 32096 ft | 437 kts | 196° |
| 2026-05-04 23:40 | 29.03950 | -79.13309 | 32089 ft | 438 kts | 196° |
| 2026-05-04 23:41 | 28.97939 | -79.14402 | 32092 ft | 436 kts | 196° |
| 2026-05-04 23:41 | 28.91955 | -79.15490 | 32089 ft | 434 kts | 196° |
| 2026-05-04 23:42 | 28.86001 | -79.16572 | 32091 ft | 432 kts | 196° |
| 2026-05-04 23:42 | 28.80077 | -79.17648 | 32062 ft | 429 kts | 196° |
| 2026-05-04 23:43 | 28.74186 | -79.18717 | 32080 ft | 427 kts | 196° |
| 2026-05-04 23:43 | 28.68357 | -79.19774 | 32085 ft | 425 kts | 196° |
| 2026-05-04 23:44 | 28.62506 | -79.20835 | 32085 ft | 425 kts | 196° |
| 2026-05-04 23:44 | 28.56652 | -79.21894 | 32082 ft | 425 kts | 196° |
| 2026-05-04 23:45 | 28.50790 | -79.22954 | 32063 ft | 426 kts | 196° |
| 2026-05-04 23:45 | 28.44976 | -79.24003 | 32069 ft | 426 kts | 196° |
| 2026-05-04 23:46 | 28.39111 | -79.25061 | 32083 ft | 427 kts | 196° |
| 2026-05-04 23:46 | 28.33234 | -79.26119 | 32076 ft | 428 kts | 197° |
| 2026-05-04 23:47 | 28.27493 | -79.27653 | 32084 ft | 421 kts | 203° |
| 2026-05-04 23:47 | 28.21884 | -79.29598 | 32063 ft | 421 kts | 204° |
| 2026-05-04 23:48 | 28.16272 | -79.31503 | 32068 ft | 421 kts | 203° |
| 2026-05-04 23:48 | 28.10641 | -79.33346 | 32067 ft | 421 kts | 203° |
| 2026-05-04 23:49 | 28.05038 | -79.35158 | 32068 ft | 421 kts | 203° |
| 2026-05-04 23:49 | 28.02229 | -79.36065 | 31922 ft | 417 kts | 203° |
| 2026-05-04 23:49 | 27.99463 | -79.36955 | 31665 ft | 409 kts | 203° |
| 2026-05-04 23:50 | 27.94018 | -79.38716 | 31547 ft | 406 kts | 203° |
| 2026-05-04 23:50 | 27.88591 | -79.40470 | 31560 ft | 405 kts | 203° |
| 2026-05-04 23:51 | 27.85866 | -79.41350 | 31189 ft | 411 kts | 203° |
| 2026-05-04 23:51 | 27.83126 | -79.42234 | 30812 ft | 408 kts | 203° |
| 2026-05-04 23:51 | 27.80437 | -79.43097 | 30407 ft | 405 kts | 203° |
| 2026-05-04 23:51 | 27.77732 | -79.43964 | 29984 ft | 402 kts | 204° |
| 2026-05-04 23:52 | 27.75049 | -79.44826 | 29528 ft | 399 kts | 204° |
| 2026-05-04 23:52 | 27.72386 | -79.45681 | 29105 ft | 396 kts | 203° |
| 2026-05-04 23:52 | 27.69738 | -79.46532 | 28699 ft | 393 kts | 203° |
| 2026-05-04 23:52 | 27.67120 | -79.47373 | 28305 ft | 390 kts | 203° |
| 2026-05-04 23:53 | 27.64518 | -79.48209 | 27909 ft | 387 kts | 203° |
| 2026-05-04 23:53 | 27.61931 | -79.49040 | 27535 ft | 385 kts | 203° |
| 2026-05-04 23:53 | 27.59355 | -79.49867 | 27151 ft | 384 kts | 203° |
| 2026-05-04 23:53 | 27.56791 | -79.50690 | 26773 ft | 383 kts | 203° |
| 2026-05-04 23:54 | 27.54232 | -79.51512 | 26390 ft | 382 kts | 203° |
| 2026-05-04 23:54 | 27.51673 | -79.52332 | 26017 ft | 381 kts | 203° |
| 2026-05-04 23:54 | 27.49120 | -79.53150 | 25637 ft | 381 kts | 203° |
| 2026-05-04 23:54 | 27.46577 | -79.53965 | 25261 ft | 380 kts | 202° |
| 2026-05-04 23:55 | 27.44065 | -79.54769 | 24889 ft | 380 kts | 202° |
| 2026-05-04 23:55 | 27.41520 | -79.55582 | 24500 ft | 379 kts | 202° |
| 2026-05-04 23:55 | 27.36449 | -79.57189 | 23729 ft | 377 kts | 202° |
| 2026-05-04 23:56 | 27.33922 | -79.57984 | 23302 ft | 376 kts | 202° |
| 2026-05-04 23:56 | 27.31413 | -79.58772 | 22901 ft | 373 kts | 202° |
| 2026-05-04 23:56 | 27.28920 | -79.59556 | 22514 ft | 369 kts | 202° |
| 2026-05-04 23:56 | 27.26461 | -79.60330 | 22141 ft | 365 kts | 202° |
| 2026-05-04 23:57 | 27.24027 | -79.61096 | 21773 ft | 362 kts | 202° |
| 2026-05-04 23:57 | 27.21635 | -79.61849 | 21417 ft | 358 kts | 202° |
| 2026-05-04 23:57 | 27.19244 | -79.62601 | 21061 ft | 355 kts | 202° |
| 2026-05-04 23:57 | 27.16878 | -79.63351 | 20699 ft | 352 kts | 202° |
| 2026-05-04 23:58 | 27.14525 | -79.64104 | 20341 ft | 350 kts | 202° |
| 2026-05-04 23:58 | 27.12193 | -79.64852 | 19987 ft | 348 kts | 202° |
| 2026-05-04 23:58 | 27.09868 | -79.65598 | 19633 ft | 346 kts | 202° |
| 2026-05-04 23:58 | 27.07558 | -79.66338 | 19263 ft | 344 kts | 202° |
| 2026-05-04 23:59 | 27.05265 | -79.67072 | 18916 ft | 342 kts | 202° |
| 2026-05-04 23:59 | 27.02976 | -79.67805 | 18560 ft | 342 kts | 202° |
| 2026-05-04 23:59 | 27.00692 | -79.68535 | 18192 ft | 341 kts | 202° |
| 2026-05-04 23:59 | 26.98411 | -79.69265 | 17813 ft | 339 kts | 201° |
| 2026-05-05 00:00 | 26.96177 | -79.69978 | 17444 ft | 337 kts | 201° |
| 2026-05-05 00:00 | 26.95415 | -79.70221 | 17323 ft | 337 kts | 201° |
| 2026-05-05 00:00 | 26.91685 | -79.71412 | 16733 ft | 334 kts | 201° |
| 2026-05-05 00:00 | 26.89460 | -79.72122 | 16390 ft | 332 kts | 201° |
| 2026-05-05 00:01 | 26.87241 | -79.72829 | 16048 ft | 330 kts | 200° |
| 2026-05-05 00:01 | 26.85035 | -79.73532 | 15704 ft | 329 kts | 200° |
| 2026-05-05 00:01 | 26.82834 | -79.74233 | 15366 ft | 327 kts | 200° |
| 2026-05-05 00:01 | 26.80643 | -79.74930 | 15032 ft | 326 kts | 200° |
| 2026-05-05 00:02 | 26.78459 | -79.75620 | 14694 ft | 325 kts | 199° |
| 2026-05-05 00:02 | 26.76287 | -79.76306 | 14363 ft | 324 kts | 199° |
| 2026-05-05 00:02 | 26.74121 | -79.76989 | 14033 ft | 322 kts | 199° |
| 2026-05-05 00:02 | 26.71962 | -79.77670 | 13667 ft | 321 kts | 199° |
| 2026-05-05 00:03 | 26.69816 | -79.78352 | 13323 ft | 319 kts | 200° |
| 2026-05-05 00:03 | 26.67750 | -79.79138 | 12976 ft | 316 kts | 203° |
| 2026-05-05 00:03 | 26.65699 | -79.79993 | 12648 ft | 314 kts | 204° |
| 2026-05-05 00:03 | 26.63660 | -79.80852 | 12323 ft | 312 kts | 203° |
| 2026-05-05 00:04 | 26.61633 | -79.81696 | 12001 ft | 310 kts | 203° |
| 2026-05-05 00:04 | 26.59613 | -79.82526 | 11683 ft | 308 kts | 203° |
| 2026-05-05 00:04 | 26.57602 | -79.83348 | 11360 ft | 306 kts | 203° |
| 2026-05-05 00:04 | 26.55607 | -79.84160 | 11050 ft | 304 kts | 203° |
| 2026-05-05 00:05 | 26.53640 | -79.85023 | 10708 ft | 302 kts | 205° |
| 2026-05-05 00:05 | 26.51711 | -79.85937 | 10388 ft | 300 kts | 206° |
| 2026-05-05 00:05 | 26.49794 | -79.86856 | 10059 ft | 299 kts | 206° |
| 2026-05-05 00:05 | 26.47907 | -79.87755 | 9978 ft | 286 kts | 206° |
| 2026-05-05 00:06 | 26.46125 | -79.88598 | 9865 ft | 270 kts | 206° |
| 2026-05-05 00:06 | 26.44411 | -79.89408 | 9372 ft | 270 kts | 205° |
| 2026-05-05 00:06 | 26.42687 | -79.90220 | 8972 ft | 266 kts | 205° |
| 2026-05-05 00:06 | 26.40983 | -79.91020 | 8534 ft | 265 kts | 205° |
| 2026-05-05 00:07 | 26.39291 | -79.91814 | 8213 ft | 264 kts | 205° |
| 2026-05-05 00:07 | 26.37612 | -79.92649 | 7996 ft | 264 kts | 209° |
| 2026-05-05 00:07 | 26.36019 | -79.93661 | 7810 ft | 263 kts | 213° |
| 2026-05-05 00:07 | 26.34451 | -79.94707 | 7650 ft | 262 kts | 212° |
| 2026-05-05 00:08 | 26.32879 | -79.95745 | 7485 ft | 262 kts | 212° |
| 2026-05-05 00:08 | 26.31306 | -79.96765 | 7325 ft | 261 kts | 213° |
| 2026-05-05 00:08 | 26.30268 | -79.97439 | 7221 ft | 260 kts | 212° |
| 2026-05-05 00:08 | 26.28193 | -79.98777 | 7001 ft | 259 kts | 211° |
| 2026-05-05 00:09 | 26.26631 | -79.99778 | 6855 ft | 259 kts | 211° |
| 2026-05-05 00:09 | 26.25046 | -80.00797 | 6555 ft | 266 kts | 211° |
| 2026-05-05 00:09 | 26.23961 | -80.01495 | 6393 ft | 267 kts | 211° |
| 2026-05-05 00:09 | 26.22357 | -80.02526 | 6188 ft | 265 kts | 210° |
| 2026-05-05 00:10 | 26.20765 | -80.03548 | 5992 ft | 263 kts | 211° |
| 2026-05-05 00:10 | 26.19218 | -80.04545 | 5808 ft | 258 kts | 213° |
| 2026-05-05 00:10 | 26.17960 | -80.05914 | 5608 ft | 253 kts | 240° |
| 2026-05-05 00:10 | 26.17248 | -80.07695 | 5472 ft | 252 kts | 251° |
| 2026-05-05 00:11 | 26.16697 | -80.09568 | 5295 ft | 257 kts | 252° |
| 2026-05-05 00:11 | 26.16145 | -80.11480 | 5119 ft | 262 kts | 252° |
| 2026-05-05 00:11 | 26.15574 | -80.13419 | 4935 ft | 264 kts | 252° |
| 2026-05-05 00:11 | 26.15028 | -80.15374 | 4749 ft | 265 kts | 259° |
| 2026-05-05 00:12 | 26.14925 | -80.17417 | 4561 ft | 265 kts | 271° |
| 2026-05-05 00:12 | 26.14970 | -80.19476 | 4370 ft | 266 kts | 271° |
| 2026-05-05 00:12 | 26.15008 | -80.21532 | 4226 ft | 262 kts | 271° |
| 2026-05-05 00:12 | 26.15035 | -80.23520 | 4015 ft | 256 kts | 271° |
| 2026-05-05 00:13 | 26.15054 | -80.25493 | 3847 ft | 254 kts | 270° |
| 2026-05-05 00:13 | 26.15070 | -80.27465 | 3669 ft | 256 kts | 271° |
| 2026-05-05 00:13 | 26.15126 | -80.29458 | 3473 ft | 259 kts | 271° |
| 2026-05-05 00:13 | 26.15120 | -80.31467 | 3306 ft | 260 kts | 270° |
| 2026-05-05 00:14 | 26.15105 | -80.33468 | 3109 ft | 256 kts | 271° |
| 2026-05-05 00:14 | 26.15105 | -80.35399 | 3042 ft | 241 kts | 270° |
| 2026-05-05 00:14 | 26.15095 | -80.37230 | 3034 ft | 234 kts | 269° |
| 2026-05-05 00:14 | 26.15066 | -80.39038 | 3038 ft | 234 kts | 269° |
| 2026-05-05 00:15 | 26.15027 | -80.40828 | 3021 ft | 233 kts | 268° |
| 2026-05-05 00:15 | 26.14990 | -80.42628 | 2994 ft | 232 kts | 270° |
| 2026-05-05 00:15 | 26.14968 | -80.44420 | 3000 ft | 230 kts | 270° |
| 2026-05-05 00:15 | 26.14934 | -80.46161 | 3013 ft | 220 kts | 269° |
| 2026-05-05 00:16 | 26.14913 | -80.47861 | 3011 ft | 219 kts | 269° |
| 2026-05-05 00:16 | 26.14907 | -80.49577 | 3006 ft | 223 kts | 271° |
| 2026-05-05 00:16 | 26.14896 | -80.51304 | 3020 ft | 223 kts | 270° |
| 2026-05-05 00:16 | 26.14868 | -80.53032 | 3008 ft | 223 kts | 269° |
| 2026-05-05 00:17 | 26.14825 | -80.54764 | 3022 ft | 223 kts | 268° |
| 2026-05-05 00:17 | 26.14759 | -80.56493 | 2993 ft | 224 kts | 268° |
| 2026-05-05 00:17 | 26.14697 | -80.58220 | 3004 ft | 223 kts | 269° |
| 2026-05-05 00:17 | 26.14661 | -80.59947 | 2999 ft | 223 kts | 268° |
| 2026-05-05 00:18 | 26.14621 | -80.61669 | 2997 ft | 222 kts | 269° |
| 2026-05-05 00:18 | 26.14583 | -80.63390 | 3008 ft | 222 kts | 268° |
| 2026-05-05 00:18 | 26.14465 | -80.65091 | 2997 ft | 220 kts | 257° |
| 2026-05-05 00:18 | 26.13713 | -80.66543 | 3020 ft | 220 kts | 220° |
| 2026-05-05 00:19 | 26.12359 | -80.67272 | 3006 ft | 217 kts | 185° |
| 2026-05-05 00:19 | 26.10916 | -80.67021 | 2997 ft | 210 kts | 150° |
| 2026-05-05 00:19 | 26.09907 | -80.65914 | 3018 ft | 205 kts | 115° |
| 2026-05-05 00:19 | 26.09545 | -80.64404 | 3009 ft | 202 kts | 95° |
| 2026-05-05 00:20 | 26.09428 | -80.62859 | 3017 ft | 202 kts | 94° |
| 2026-05-05 00:20 | 26.09344 | -80.61313 | 3000 ft | 203 kts | 92° |
| 2026-05-05 00:20 | 26.09269 | -80.59743 | 3011 ft | 203 kts | 92° |
| 2026-05-05 00:20 | 26.09224 | -80.58180 | 3007 ft | 203 kts | 90° |
| 2026-05-05 00:21 | 26.09153 | -80.56579 | 3001 ft | 209 kts | 93° |
| 2026-05-05 00:21 | 26.09052 | -80.54975 | 3005 ft | 208 kts | 93° |
| 2026-05-05 00:21 | 26.08954 | -80.53389 | 2995 ft | 203 kts | 94° |
| 2026-05-05 00:21 | 26.08859 | -80.51823 | 3008 ft | 203 kts | 93° |
| 2026-05-05 00:22 | 26.08767 | -80.50269 | 2997 ft | 196 kts | 93° |
| 2026-05-05 00:22 | 26.08680 | -80.48797 | 2994 ft | 187 kts | 94° |
| 2026-05-05 00:22 | 26.08594 | -80.47362 | 3014 ft | 188 kts | 93° |
| 2026-05-05 00:22 | 26.08509 | -80.45915 | 3000 ft | 187 kts | 93° |
| 2026-05-05 00:23 | 26.08424 | -80.44498 | 3001 ft | 181 kts | 93° |
| 2026-05-05 00:23 | 26.08340 | -80.43089 | 3005 ft | 183 kts | 92° |
| 2026-05-05 00:23 | 26.08258 | -80.41677 | 3048 ft | 184 kts | 93° |
| 2026-05-05 00:23 | 26.08176 | -80.40285 | 3020 ft | 176 kts | 93° |
| 2026-05-05 00:24 | 26.08097 | -80.38952 | 3024 ft | 172 kts | 93° |
| 2026-05-05 00:24 | 26.08019 | -80.37642 | 3018 ft | 166 kts | 93° |
| 2026-05-05 00:24 | 26.07942 | -80.36333 | 3012 ft | 169 kts | 94° |
| 2026-05-05 00:24 | 26.07862 | -80.35052 | 3003 ft | 166 kts | 92° |
| 2026-05-05 00:25 | 26.07818 | -80.33755 | 2948 ft | 171 kts | 91° |
| 2026-05-05 00:25 | 26.07798 | -80.32443 | 2722 ft | 167 kts | 89° |
| 2026-05-05 00:25 | 26.07787 | -80.31194 | 2554 ft | 159 kts | 89° |
| 2026-05-05 00:25 | 26.07780 | -80.29959 | 2318 ft | 158 kts | 90° |
| 2026-05-05 00:26 | 26.07771 | -80.28741 | 2127 ft | 158 kts | 90° |
| 2026-05-05 00:26 | 26.07762 | -80.27537 | 1924 ft | 153 kts | 89° |
| 2026-05-05 00:26 | 26.07755 | -80.26389 | 1725 ft | 145 kts | 89° |
| 2026-05-05 00:26 | 26.07748 | -80.25254 | 1540 ft | 149 kts | 89° |
| 2026-05-05 00:27 | 26.07741 | -80.24107 | 1329 ft | 147 kts | 89° |
| 2026-05-05 00:27 | 26.07733 | -80.22973 | 1148 ft | 148 kts | 88° |
| 2026-05-05 00:27 | 26.07725 | -80.21839 | 969 ft | 149 kts | 89° |
| 2026-05-05 00:27 | 26.07722 | -80.20679 | 776 ft | 149 kts | 89° |
| 2026-05-05 00:28 | 26.07705 | -80.19537 | 575 ft | 150 kts | 89° |
| 2026-05-05 00:28 | 26.07713 | -80.18374 | 398 ft | 150 kts | 87° |
| 2026-05-05 00:28 | 26.07693 | -80.17247 | 175 ft | 144 kts | 87° |
| 2026-05-05 00:28 | 26.07698 | -80.16136 | 23 ft | 132 kts | 91° |
| 2026-05-05 00:29 | 26.07691 | -80.15395 | 17 ft | 66 kts | 90° |
| 2026-05-05 00:29 | 26.07687 | -80.15086 | 16 ft | 33 kts | 91° |
| 2026-05-05 00:29 | 26.07614 | -80.14905 | 21 ft | 21 kts | 118° |
| 2026-05-05 00:29 | 26.07598 | -80.14874 | 22 ft | 0 kts | 120° |
| 2026-05-05 00:30 | 26.07593 | -80.14863 | 22 ft | 2 kts | 121° |
| 2026-05-05 00:30 | 26.07586 | -80.14851 | 23 ft | 2 kts | 121° |